Kezdőlap
METAR-TAF:

METAR-TAF

Repülőterek :

Nouakchott, Mauritánia

földrajzi szélesség: 18-18-36N, földrajzi hosszúság: 015-58-11W, magasság: 3 m

Jelenlegi meteorológiai megfigyelések

A jelentés 40 perccel ezelõtt készült, 02:30 UTC
Észak-északnyugati szél 9 kt
Hőmérséklet 25°C
Páratartalom 89%
Légköri nyomás 1013 hPa
Látótávolság: 8000 m

METAR: GQNO 200230Z 34009KT 8000 NSC 25/23 Q1013 NOSIG

Idő: 03:10 (03:10 UTC)

Előrejelzés

A jelentés 4 órával és 10 perccel ezelõtt készült, 23:00 UTC
Az előrejelzés 20-én 00 óra UTC és 21-én 06 óra UTC között érvényes
Északnyugati szél 12 kt
Látótávolság: 8000 m
20-én 05 óra UTC és 20-én 09 óra UTC között ideiglenes
Szakadozott felhőzet 800 lábon
20-én 16 óra UTC és 20-én 20 óra UTC között ideiglenes
Látótávolság: 4000 m
homokvihar

TAF: GQNO 192300Z 2000/2106 32012KT 8000 NSC TEMPO 2005/2009 BKN008 TEMPO 2016/2020 4000 BLSA

Meteorológiai megfigyelések és előrejelzések több, mint 4000 repülőtéren (METAR és TAF jelentéseket).

A térképen piros és sárga pontok jelzik az elérhető meteorológiai állomásokat.

Mozgassa az egeret a pont fölött, hogy megjelenjen az állomás neve.

Azután kattintson az időjárási megfigyelések és előrejelzések megtekintéséhez.

A térkép megváltoztatása: kattintson a fekete keresztel jelölt zöld gombra ráközelítéshez, a vonallal jelölt zöld gombra távolításhoz, vagy a zöld nyilakra a szomszédos térképek eléréséhez.


METAR-TAF: